createdAt,value
2017-08-19T00:00:11.103Z,31.6
2017-08-19T00:01:08.403Z,31.6
2017-08-19T00:02:08.473Z,31.6
2017-08-19T00:03:08.183Z,31.5
2017-08-19T00:04:13.232Z,31.6
2017-08-19T00:05:08.353Z,31.6
2017-08-19T00:06:08.502Z,31.6
2017-08-19T00:07:11.310Z,31.6
2017-08-19T00:08:08.828Z,31.6
2017-08-19T00:09:08.585Z,31.6
2017-08-19T00:10:08.970Z,31.6
2017-08-19T00:11:09.037Z,31.5
2017-08-19T00:12:14.444Z,31.6
2017-08-19T00:13:08.873Z,31.6
2017-08-19T00:14:08.936Z,31.6
2017-08-19T00:15:13.980Z,31.5
2017-08-19T00:16:09.420Z,31.5
2017-08-19T00:17:09.097Z,31.5
2017-08-19T00:18:09.351Z,31.5
2017-08-19T00:19:12.452Z,31.5
2017-08-19T00:20:09.348Z,31.5
2017-08-19T00:21:09.348Z,31.5
2017-08-19T00:22:09.490Z,31.5
2017-08-19T00:23:12.657Z,31.5
2017-08-19T00:24:10.026Z,31.5
2017-08-19T00:25:14.581Z,31.5
2017-08-19T00:26:09.707Z,31.5
2017-08-19T00:27:12.642Z,31.5
2017-08-19T00:28:10.168Z,31.5
2017-08-19T00:29:10.205Z,31.5
2017-08-19T00:30:10.407Z,31.5
2017-08-19T00:31:10.226Z,31.5
2017-08-19T00:32:14.922Z,31.5
2017-08-19T00:33:13.180Z,31.5
2017-08-19T00:34:10.430Z,31.5
2017-08-19T00:35:10.111Z,31.5
2017-08-19T00:36:10.290Z,31.5
2017-08-19T00:37:15.489Z,31.5
2017-08-19T00:38:10.463Z,31.5
2017-08-19T00:39:13.445Z,31.5
2017-08-19T00:40:10.689Z,31.5
2017-08-19T00:41:13.577Z,31.5
2017-08-19T00:42:10.690Z,31.5
2017-08-19T00:43:15.772Z,31.5
2017-08-19T00:44:10.552Z,31.5
2017-08-19T00:45:15.629Z,31.5
2017-08-19T00:46:10.689Z,31.5
2017-08-19T00:47:15.740Z,31.5
2017-08-19T00:48:16.328Z,31.5
2017-08-19T00:49:11.210Z,31.5
2017-08-19T00:50:10.946Z,31.5
2017-08-19T00:51:11.835Z,31.5
2017-08-19T00:52:15.952Z,31.5
2017-08-19T00:53:11.355Z,31.5
2017-08-19T00:54:11.274Z,31.5
2017-08-19T00:55:11.467Z,31.5
2017-08-19T00:56:14.096Z,31.5
2017-08-19T00:57:16.251Z,31.5
2017-08-19T00:58:11.366Z,31.5
2017-08-19T00:59:16.739Z,31.5
2017-08-19T01:00:14.520Z,31.5
2017-08-19T01:01:11.553Z,31.5
2017-08-19T01:02:11.845Z,31.5
2017-08-19T01:03:14.684Z,31.5
2017-08-19T01:04:16.917Z,31.5
2017-08-19T01:05:16.948Z,31.5
2017-08-19T01:06:11.859Z,31.5
2017-08-19T01:07:16.730Z,31.5
2017-08-19T01:08:14.673Z,31.5
2017-08-19T01:09:11.867Z,31.5
2017-08-19T01:10:12.234Z,31.5
2017-08-19T01:11:14.808Z,31.5
2017-08-19T01:12:17.497Z,31.5
2017-08-19T01:13:14.938Z,31.5
2017-08-19T01:14:17.415Z,31.5
2017-08-19T01:15:17.286Z,31.5
2017-08-19T01:16:15.574Z,31.5
2017-08-19T01:17:12.256Z,31.5
2017-08-19T01:18:12.802Z,31.5
2017-08-19T01:19:12.875Z,31.5
2017-08-19T01:20:13.325Z,31.5
2017-08-19T01:21:15.849Z,31.5
2017-08-19T01:22:18.400Z,31.5
2017-08-19T01:23:16.469Z,31.4
2017-08-19T01:24:13.220Z,31.5
2017-08-19T01:25:14.021Z,31.5
2017-08-19T01:26:15.622Z,31.5
2017-08-19T01:27:15.733Z,31.5
2017-08-19T01:28:17.812Z,31.4
2017-08-19T01:29:13.222Z,31.5
2017-08-19T01:30:13.210Z,31.5
2017-08-19T01:31:16.338Z,31.5
2017-08-19T01:32:13.211Z,31.5
2017-08-19T01:33:13.241Z,31.4
2017-08-19T01:34:13.263Z,31.4
2017-08-19T01:35:16.132Z,31.4
2017-08-19T01:36:18.489Z,31.4
2017-08-19T01:37:13.367Z,31.4
2017-08-19T01:38:13.662Z,31.4
2017-08-19T01:39:18.394Z,31.4
2017-08-19T01:40:13.523Z,31.4
2017-08-19T01:41:13.464Z,31.4
2017-08-19T01:42:19.143Z,31.4
2017-08-19T01:43:18.722Z,31.4
2017-08-19T01:44:16.631Z,31.4
2017-08-19T01:45:17.005Z,31.4
2017-08-19T01:46:14.186Z,31.4
2017-08-19T01:47:16.821Z,31.4
2017-08-19T01:48:17.546Z,31.4
2017-08-19T01:49:17.259Z,31.4
2017-08-19T01:50:14.389Z,31.4
2017-08-19T01:51:14.435Z,31.4
2017-08-19T01:52:17.419Z,31.4
2017-08-19T01:53:14.610Z,31.4
2017-08-19T01:54:19.728Z,31.4
2017-08-19T01:55:14.738Z,31.4
2017-08-19T01:56:20.200Z,31.4
2017-08-19T01:57:18.174Z,31.4
2017-08-19T01:58:18.206Z,31.4
2017-08-19T01:59:14.962Z,31.4
2017-08-19T02:00:14.803Z,31.4
2017-08-19T02:01:14.482Z,31.4
2017-08-19T02:02:14.482Z,31.4
2017-08-19T02:03:14.863Z,31.4
2017-08-19T02:04:14.646Z,31.4
2017-08-19T02:05:17.837Z,31.4
2017-08-19T02:06:14.678Z,31.4
2017-08-19T02:07:15.024Z,31.4
2017-08-19T02:08:17.666Z,31.4
2017-08-19T02:09:19.752Z,31.4
2017-08-19T02:10:19.778Z,31.4
2017-08-19T02:11:18.060Z,31.4
2017-08-19T02:12:15.213Z,31.4
2017-08-19T02:13:18.094Z,31.4
2017-08-19T02:14:19.948Z,31.4
2017-08-19T02:15:15.407Z,31.4
2017-08-19T02:16:20.063Z,31.4
2017-08-19T02:17:18.346Z,31.4
2017-08-19T02:18:20.295Z,31.4
2017-08-19T02:19:18.390Z,31.4
2017-08-19T02:20:15.840Z,31.4
2017-08-19T02:21:20.857Z,31.4
2017-08-19T02:22:20.602Z,31.4
2017-08-19T02:23:18.688Z,31.4
2017-08-19T02:24:18.662Z,31.4
2017-08-19T02:25:18.753Z,31.4
2017-08-19T02:26:19.445Z,31.4
2017-08-19T02:27:15.786Z,31.4
2017-08-19T02:28:15.676Z,31.4
2017-08-19T02:29:16.062Z,31.4
2017-08-19T02:30:18.509Z,31.4
2017-08-19T02:31:20.744Z,31.3
2017-08-19T02:32:15.823Z,31.4
2017-08-19T02:33:15.855Z,31.4
2017-08-19T02:34:21.360Z,31.3
2017-08-19T02:35:19.120Z,31.4
2017-08-19T02:36:15.989Z,31.4
2017-08-19T02:37:21.014Z,31.4
2017-08-19T02:38:16.361Z,31.4
2017-08-19T02:39:21.599Z,31.3
2017-08-19T02:40:19.064Z,31.4
2017-08-19T02:41:16.526Z,31.3
2017-08-19T02:42:21.563Z,31.3
2017-08-19T02:43:16.752Z,31.3
2017-08-19T02:44:16.689Z,31.3
2017-08-19T02:45:21.386Z,31.3
2017-08-19T02:46:16.715Z,31.3
2017-08-19T02:47:19.749Z,31.3
2017-08-19T02:48:21.614Z,31.3
2017-08-19T02:49:16.698Z,31.3
2017-08-19T02:50:17.007Z,31.3
2017-08-19T02:51:21.756Z,31.3
2017-08-19T02:52:16.748Z,31.3
2017-08-19T02:53:16.713Z,31.3
2017-08-19T02:54:16.687Z,31.3
2017-08-19T02:55:19.598Z,31.3
2017-08-19T02:56:19.674Z,31.3
2017-08-19T02:57:19.741Z,31.3
2017-08-19T02:58:17.247Z,31.3
2017-08-19T02:59:19.800Z,31.3
2017-08-19T03:00:22.001Z,31.3
2017-08-19T03:01:20.004Z,31.3
2017-08-19T03:02:22.158Z,31.3
2017-08-19T03:03:20.427Z,31.3
2017-08-19T03:04:17.644Z,31.3
2017-08-19T03:05:20.594Z,31.3
2017-08-19T03:06:17.865Z,31.3
2017-08-19T03:07:18.194Z,31.3
2017-08-19T03:08:17.846Z,31.3
2017-08-19T03:09:17.946Z,31.3
2017-08-19T03:10:21.047Z,31.3
2017-08-19T03:11:17.876Z,31.3
2017-08-19T03:12:17.790Z,31.3
2017-08-19T03:13:17.846Z,31.3
2017-08-19T03:14:17.889Z,31.3
2017-08-19T03:15:17.963Z,31.3
2017-08-19T03:16:23.021Z,31.3
2017-08-19T03:17:18.408Z,31.3
2017-08-19T03:18:21.385Z,31.3
2017-08-19T03:19:23.537Z,31.3
2017-08-19T03:20:21.141Z,31.3
2017-08-19T03:21:18.344Z,31.3
2017-08-19T03:22:18.700Z,31.3
2017-08-19T03:23:18.501Z,31.3
2017-08-19T03:24:21.663Z,31.3
2017-08-19T03:25:21.685Z,31.3
2017-08-19T03:26:23.487Z,31.3
2017-08-19T03:27:18.904Z,31.3
2017-08-19T03:28:18.643Z,31.3
2017-08-19T03:29:21.737Z,31.3
2017-08-19T03:30:24.104Z,31.3
2017-08-19T03:31:21.649Z,31.3
2017-08-19T03:32:23.773Z,31.3
2017-08-19T03:33:18.849Z,31.3
2017-08-19T03:34:19.216Z,31.2
2017-08-19T03:35:19.035Z,31.2
2017-08-19T03:36:24.005Z,31.3
2017-08-19T03:37:19.404Z,31.3
2017-08-19T03:38:24.141Z,31.3
2017-08-19T03:39:19.229Z,31.3
2017-08-19T03:40:22.467Z,31.2
2017-08-19T03:41:22.495Z,31.3
2017-08-19T03:42:24.373Z,31.3
2017-08-19T03:43:19.768Z,31.3
2017-08-19T03:44:19.553Z,31.2
2017-08-19T03:45:24.918Z,31.2
2017-08-19T03:46:19.726Z,31.3
2017-08-19T03:47:20.096Z,31.3
2017-08-19T03:48:20.187Z,31.3
2017-08-19T03:49:23.133Z,31.2
2017-08-19T03:50:22.855Z,31.3
2017-08-19T03:51:25.055Z,31.2
2017-08-19T03:52:25.423Z,31.2
2017-08-19T03:53:25.523Z,31.2
2017-08-19T03:54:23.065Z,31.2
2017-08-19T03:55:25.266Z,31.2
2017-08-19T03:56:20.703Z,31.2
2017-08-19T03:57:23.531Z,31.2
2017-08-19T03:58:25.733Z,31.2
2017-08-19T03:59:20.751Z,31.2
2017-08-19T04:00:23.697Z,31.2
2017-08-19T04:01:23.820Z,31.2
2017-08-19T04:02:20.921Z,31.2
2017-08-19T04:03:25.652Z,31.2
2017-08-19T04:04:25.722Z,31.2
2017-08-19T04:05:20.827Z,31.2
2017-08-19T04:06:24.099Z,31.2
2017-08-19T04:07:23.869Z,31.2
2017-08-19T04:08:23.946Z,31.2
2017-08-19T04:09:26.113Z,31.2
2017-08-19T04:10:26.481Z,31.2
2017-08-19T04:11:21.255Z,31.2
2017-08-19T04:12:26.318Z,31.2
2017-08-19T04:13:21.768Z,31.2
2017-08-19T04:14:21.439Z,31.2
2017-08-19T04:15:24.383Z,31.2
2017-08-19T04:16:24.730Z,31.2
2017-08-19T04:17:21.865Z,31.2
2017-08-19T04:18:21.871Z,31.2
2017-08-19T04:19:24.431Z,31.2
2017-08-19T04:20:21.978Z,31.2
2017-08-19T04:21:22.096Z,31.2
2017-08-19T04:22:22.116Z,31.2
2017-08-19T04:23:26.784Z,31.2
2017-08-19T04:24:21.860Z,31.2
2017-08-19T04:25:22.727Z,31.2
2017-08-19T04:26:27.192Z,31.2
2017-08-19T04:27:26.953Z,31.2
2017-08-19T04:28:24.871Z,31.2
2017-08-19T04:29:27.384Z,31.2
2017-08-19T04:30:22.366Z,31.2
2017-08-19T04:31:25.034Z,31.2
2017-08-19T04:32:22.241Z,31.2
2017-08-19T04:33:25.487Z,31.2
2017-08-19T04:34:22.365Z,31.2
2017-08-19T04:35:25.285Z,31.2
2017-08-19T04:36:25.682Z,31.2
2017-08-19T04:37:25.697Z,31.2
2017-08-19T04:38:27.559Z,31.2
2017-08-19T04:39:22.885Z,31.2
2017-08-19T04:40:22.577Z,31.2
2017-08-19T04:41:25.499Z,31.2
2017-08-19T04:42:25.587Z,31.2
2017-08-19T04:43:28.119Z,31.2
2017-08-19T04:44:22.918Z,31.1
2017-08-19T04:45:23.263Z,31.2
2017-08-19T04:46:28.016Z,31.2
2017-08-19T04:47:23.451Z,31.2
2017-08-19T04:48:23.522Z,31.2
2017-08-19T04:49:23.557Z,31.2
2017-08-19T04:50:26.102Z,31.2
2017-08-19T04:51:26.530Z,31.2
2017-08-19T04:52:28.636Z,31.2
2017-08-19T04:53:28.336Z,31.2
2017-08-19T04:54:28.745Z,31.2
2017-08-19T04:55:26.366Z,31.2
2017-08-19T04:56:23.884Z,31.2
2017-08-19T04:57:23.644Z,31.2
2017-08-19T04:58:23.782Z,31.2
2017-08-19T04:59:23.765Z,31.2
2017-08-19T05:00:26.708Z,31.1
2017-08-19T05:01:24.212Z,31.2
2017-08-19T05:02:29.258Z,31.2
2017-08-19T05:03:24.060Z,31.2
2017-08-19T05:04:29.449Z,31.2
2017-08-19T05:05:24.551Z,31.2
2017-08-19T05:06:24.369Z,31.2
2017-08-19T05:07:27.183Z,31.2
2017-08-19T05:08:29.661Z,31.2
2017-08-19T05:09:27.658Z,31.2
2017-08-19T05:10:27.341Z,31.1
2017-08-19T05:11:24.743Z,31.2
2017-08-19T05:12:27.691Z,31.2
2017-08-19T05:13:27.465Z,31.2
2017-08-19T05:14:24.641Z,31.2
2017-08-19T05:15:24.987Z,31.2
2017-08-19T05:16:30.046Z,31.2
2017-08-19T05:17:24.774Z,31.2
2017-08-19T05:18:30.110Z,31.2
2017-08-19T05:19:30.162Z,31.2
2017-08-19T05:20:25.230Z,31.2
2017-08-19T05:21:27.867Z,31.1
2017-08-19T05:22:30.335Z,31.1
2017-08-19T05:23:30.416Z,31.1
2017-08-19T05:24:28.001Z,31.1
2017-08-19T05:25:25.157Z,31.1
2017-08-19T05:26:28.018Z,31.2
2017-08-19T05:27:25.199Z,31.2
2017-08-19T05:28:28.422Z,31.2
2017-08-19T05:29:25.552Z,31.2
2017-08-19T05:30:28.525Z,31.1
2017-08-19T05:31:30.703Z,31.1
2017-08-19T05:32:25.615Z,31.2
2017-08-19T05:33:25.738Z,31.2
2017-08-19T05:34:30.752Z,31.1
2017-08-19T05:35:28.385Z,31.2
2017-08-19T05:36:28.772Z,31.2
2017-08-19T05:37:25.930Z,31.2
2017-08-19T05:38:30.565Z,31.2
2017-08-19T05:39:31.039Z,31.1
2017-08-19T05:40:26.073Z,31.1
2017-08-19T05:41:28.609Z,31.1
2017-08-19T05:42:25.836Z,31.1
2017-08-19T05:43:25.902Z,31.1
2017-08-19T05:44:28.824Z,31.1
2017-08-19T05:45:25.959Z,31.1
2017-08-19T05:46:29.198Z,31.1
2017-08-19T05:47:28.971Z,31.1
2017-08-19T05:48:31.506Z,31.1
2017-08-19T05:49:26.225Z,31.1
2017-08-19T05:50:29.127Z,31.1
2017-08-19T05:51:29.525Z,31.1
2017-08-19T05:52:26.656Z,31.1
2017-08-19T05:53:26.405Z,31.1
2017-08-19T05:54:26.491Z,31.1
2017-08-19T05:55:31.830Z,31.2
2017-08-19T05:56:31.834Z,31.2
2017-08-19T05:57:26.513Z,31.2
2017-08-19T05:58:26.590Z,31.1
2017-08-19T05:59:26.641Z,31.2
2017-08-19T06:00:32.060Z,31.2
2017-08-19T06:01:26.794Z,31.1
2017-08-19T06:02:27.103Z,31.2
2017-08-19T06:03:27.214Z,31.2
2017-08-19T06:04:30.076Z,31.2
2017-08-19T06:05:27.285Z,31.2
2017-08-19T06:06:27.292Z,31.2
2017-08-19T06:07:32.554Z,31.2
2017-08-19T06:08:27.140Z,31.2
2017-08-19T06:09:27.252Z,31.2
2017-08-19T06:10:32.514Z,31.2
2017-08-19T06:11:27.327Z,31.2
2017-08-19T06:12:27.733Z,31.2
2017-08-19T06:13:27.937Z,31.2
2017-08-19T06:14:27.859Z,31.2
2017-08-19T06:15:32.850Z,31.2
2017-08-19T06:16:30.650Z,31.2
2017-08-19T06:17:32.998Z,31.2
2017-08-19T06:18:33.085Z,31.2
2017-08-19T06:19:30.889Z,31.2
2017-08-19T06:20:30.741Z,31.2
2017-08-19T06:21:28.219Z,31.2
2017-08-19T06:22:28.312Z,31.2
2017-08-19T06:23:28.347Z,31.2
2017-08-19T06:24:31.220Z,31.2
2017-08-19T06:25:33.208Z,31.2
2017-08-19T06:26:28.077Z,31.3
2017-08-19T06:27:31.029Z,31.2
2017-08-19T06:28:30.988Z,31.3
2017-08-19T06:29:31.035Z,31.3
2017-08-19T06:30:33.548Z,31.3
2017-08-19T06:31:28.825Z,31.3
2017-08-19T06:32:33.664Z,31.3
2017-08-19T06:33:28.482Z,31.3
2017-08-19T06:34:31.739Z,31.3
2017-08-19T06:35:28.890Z,31.3
2017-08-19T06:36:31.471Z,31.3
2017-08-19T06:37:28.949Z,31.3
2017-08-19T06:38:29.080Z,31.3
2017-08-19T06:39:29.050Z,31.3
2017-08-19T06:40:29.016Z,31.3
2017-08-19T06:41:33.839Z,31.3
2017-08-19T06:42:31.771Z,31.3
2017-08-19T06:43:29.243Z,31.3
2017-08-19T06:44:34.026Z,31.3
2017-08-19T06:45:29.116Z,31.3
2017-08-19T06:46:29.170Z,31.4
2017-08-19T06:47:32.433Z,31.4
2017-08-19T06:48:29.381Z,31.4
2017-08-19T06:49:29.547Z,31.3
2017-08-19T06:50:29.465Z,31.4
2017-08-19T06:51:29.497Z,31.4
2017-08-19T06:52:32.419Z,31.4
2017-08-19T06:53:29.940Z,31.4
2017-08-19T06:54:29.686Z,31.4
2017-08-19T06:55:33.173Z,31.4
2017-08-19T06:56:32.717Z,31.4
2017-08-19T06:57:34.873Z,31.4
2017-08-19T06:58:29.939Z,31.4
2017-08-19T06:59:30.035Z,31.4
2017-08-19T07:00:30.112Z,31.4
2017-08-19T07:01:35.440Z,31.4
2017-08-19T07:02:30.457Z,31.4
2017-08-19T07:03:30.560Z,31.4
2017-08-19T07:04:35.265Z,31.4
2017-08-19T07:05:30.426Z,31.4
2017-08-19T07:06:30.472Z,31.4
2017-08-19T07:07:30.785Z,31.4
2017-08-19T07:08:35.747Z,31.4
2017-08-19T07:09:33.751Z,31.5
2017-08-19T07:10:33.458Z,31.5
2017-08-19T07:11:33.780Z,31.5
2017-08-19T07:12:30.589Z,31.4
2017-08-19T07:13:30.724Z,31.5
2017-08-19T07:14:30.759Z,31.5
2017-08-19T07:15:31.109Z,31.5
2017-08-19T07:16:33.735Z,31.5
2017-08-19T07:17:35.931Z,31.5
2017-08-19T07:18:34.131Z,31.5
2017-08-19T07:19:31.081Z,31.5
2017-08-19T07:20:32.388Z,31.5
2017-08-19T07:21:31.498Z,31.5
2017-08-19T07:22:31.494Z,31.5
2017-08-19T07:23:34.404Z,31.5
2017-08-19T07:24:31.541Z,31.5
2017-08-19T07:25:31.351Z,31.5
2017-08-19T07:26:31.401Z,31.5
2017-08-19T07:27:31.692Z,31.5
2017-08-19T07:28:34.315Z,31.5
2017-08-19T07:29:34.710Z,31.5
2017-08-19T07:30:31.544Z,31.6
2017-08-19T07:31:31.853Z,31.6
2017-08-19T07:32:36.849Z,31.6
2017-08-19T07:33:34.487Z,31.6
2017-08-19T07:34:31.705Z,31.6
2017-08-19T07:35:34.555Z,31.6
2017-08-19T07:36:31.775Z,31.6
2017-08-19T07:37:35.027Z,31.6
2017-08-19T07:38:37.169Z,31.6
2017-08-19T07:39:31.980Z,31.6
2017-08-19T07:40:37.264Z,31.6
2017-08-19T07:41:32.267Z,31.6
2017-08-19T07:42:32.071Z,31.6
2017-08-19T07:43:34.946Z,31.6
2017-08-19T07:44:32.432Z,31.6
2017-08-19T07:45:35.073Z,31.7
2017-08-19T07:46:32.196Z,31.7
2017-08-19T07:47:32.311Z,31.7
2017-08-19T07:48:32.322Z,31.6
2017-08-19T07:49:32.620Z,31.7
2017-08-19T07:50:37.357Z,31.7
2017-08-19T07:51:37.446Z,31.7
2017-08-19T07:52:37.495Z,31.7
2017-08-19T07:53:35.425Z,31.7
2017-08-19T07:54:32.975Z,31.7
2017-08-19T07:55:37.996Z,31.7
2017-08-19T07:56:33.033Z,31.7
2017-08-19T07:57:33.130Z,31.7
2017-08-19T07:58:32.946Z,31.7
2017-08-19T07:59:33.249Z,31.7
2017-08-19T08:00:33.512Z,31.7
2017-08-19T08:01:33.305Z,31.7
2017-08-19T08:02:36.298Z,31.8
2017-08-19T08:03:33.430Z,31.8
2017-08-19T08:04:36.064Z,31.8
2017-08-19T08:05:38.542Z,31.7
2017-08-19T08:06:36.666Z,31.7
2017-08-19T08:07:33.372Z,31.7
2017-08-19T08:08:33.675Z,31.7
2017-08-19T08:09:33.740Z,31.7
2017-08-19T08:10:36.399Z,31.8
2017-08-19T08:11:33.610Z,31.8
2017-08-19T08:12:39.085Z,31.8
2017-08-19T08:13:33.969Z,31.8
2017-08-19T08:14:34.019Z,31.8
2017-08-19T08:15:39.062Z,31.8
2017-08-19T08:16:36.689Z,31.8
2017-08-19T08:17:39.189Z,31.8
2017-08-19T08:18:34.060Z,31.8
2017-08-19T08:19:37.132Z,31.8
2017-08-19T08:20:34.275Z,31.8
2017-08-19T08:21:33.993Z,31.8
2017-08-19T08:22:34.265Z,31.8
2017-08-19T08:23:36.881Z,31.8
2017-08-19T08:24:37.109Z,31.8
2017-08-19T08:25:37.288Z,31.8
2017-08-19T08:26:34.473Z,31.8
2017-08-19T08:27:39.270Z,31.8
2017-08-19T08:28:34.313Z,31.8
2017-08-19T08:29:37.505Z,31.8
2017-08-19T08:30:34.851Z,31.8
2017-08-19T08:31:34.739Z,31.8
2017-08-19T08:32:37.654Z,31.8
2017-08-19T08:33:37.347Z,31.8
2017-08-19T08:34:37.704Z,31.8
2017-08-19T08:35:37.331Z,31.8
2017-08-19T08:36:35.097Z,31.8
2017-08-19T08:37:39.560Z,31.8
2017-08-19T08:38:39.938Z,31.8
2017-08-19T08:39:37.867Z,31.8
2017-08-19T08:40:37.902Z,31.8
2017-08-19T08:41:39.776Z,31.8
2017-08-19T08:42:35.038Z,31.8
2017-08-19T08:43:37.723Z,31.8
2017-08-19T08:44:39.873Z,31.8
2017-08-19T08:45:34.931Z,31.8
2017-08-19T08:46:35.319Z,31.8
2017-08-19T08:47:35.026Z,31.8
2017-08-19T08:48:35.278Z,31.8
2017-08-19T08:49:40.465Z,31.8
2017-08-19T08:50:38.045Z,31.8
2017-08-19T08:51:38.125Z,31.8
2017-08-19T08:52:35.331Z,31.8
2017-08-19T08:53:40.364Z,31.8
2017-08-19T08:54:35.915Z,31.8
2017-08-19T08:55:35.525Z,31.8
2017-08-19T08:56:35.919Z,31.8
2017-08-19T08:57:38.805Z,31.8
2017-08-19T08:58:40.688Z,31.8
2017-08-19T08:59:41.069Z,31.8
2017-08-19T09:00:35.992Z,31.8
2017-08-19T09:01:36.117Z,31.8
2017-08-19T09:02:39.060Z,31.8
2017-08-19T09:03:36.267Z,31.8
2017-08-19T09:04:41.012Z,31.8
2017-08-19T09:05:36.618Z,31.8
2017-08-19T09:06:41.171Z,31.8
2017-08-19T09:07:36.560Z,31.8
2017-08-19T09:08:36.644Z,31.8
2017-08-19T09:09:36.377Z,31.8
2017-08-19T09:10:41.441Z,31.8
2017-08-19T09:11:41.695Z,31.8
2017-08-19T09:12:36.898Z,31.8
2017-08-19T09:13:39.787Z,31.8
2017-08-19T09:14:41.894Z,31.8
2017-08-19T09:15:36.713Z,31.9
2017-08-19T09:16:39.903Z,31.9
2017-08-19T09:17:40.081Z,31.9
2017-08-19T09:18:42.049Z,31.9
2017-08-19T09:19:36.758Z,31.9
2017-08-19T09:20:37.096Z,31.9
2017-08-19T09:21:36.849Z,31.9
2017-08-19T09:22:37.199Z,31.9
2017-08-19T09:23:37.454Z,31.9
2017-08-19T09:24:37.017Z,31.9
2017-08-19T09:25:37.402Z,31.9
2017-08-19T09:26:42.109Z,31.9
2017-08-19T09:27:37.192Z,31.9
2017-08-19T09:28:42.239Z,31.9
2017-08-19T09:29:42.452Z,31.9
2017-08-19T09:30:37.378Z,32
2017-08-19T09:31:37.792Z,32
2017-08-19T09:32:37.808Z,32
2017-08-19T09:33:40.425Z,32
2017-08-19T09:34:37.983Z,32
2017-08-19T09:35:41.058Z,32
2017-08-19T09:36:38.022Z,32.1
2017-08-19T09:37:40.919Z,32.1
2017-08-19T09:38:40.614Z,32.1
2017-08-19T09:39:38.126Z,32.1
2017-08-19T09:40:41.121Z,32.1
2017-08-19T09:41:43.086Z,32.1
2017-08-19T09:42:42.992Z,32.1
2017-08-19T09:43:43.048Z,32.1
2017-08-19T09:44:38.140Z,32.1
2017-08-19T09:45:43.124Z,32.2
2017-08-19T09:46:41.050Z,32.1
2017-08-19T09:47:41.624Z,32.2
2017-08-19T09:48:38.477Z,32.2
2017-08-19T09:49:43.661Z,32.2
2017-08-19T09:50:43.412Z,32.2
2017-08-19T09:51:43.504Z,32.2
2017-08-19T09:52:38.919Z,32.2
2017-08-19T09:53:39.162Z,32.2
2017-08-19T09:54:41.536Z,32.2
2017-08-19T09:55:38.757Z,32.2
2017-08-19T09:56:41.605Z,32.2
2017-08-19T09:57:38.963Z,32.2
2017-08-19T09:58:38.851Z,32.2
2017-08-19T09:59:44.392Z,32.2
2017-08-19T10:00:41.923Z,32.2
2017-08-19T10:01:39.033Z,32.3
2017-08-19T10:02:44.406Z,32.3
2017-08-19T10:03:42.367Z,32.3
2017-08-19T10:04:39.271Z,32.3
2017-08-19T10:05:39.772Z,32.3
2017-08-19T10:06:44.724Z,32.3
2017-08-19T10:07:42.377Z,32.3
2017-08-19T10:08:44.868Z,32.3
2017-08-19T10:09:39.878Z,32.3
2017-08-19T10:10:44.634Z,32.3
2017-08-19T10:11:40.141Z,32.3
2017-08-19T10:12:40.099Z,32.3
2017-08-19T10:13:40.172Z,32.3
2017-08-19T10:14:43.098Z,32.3
2017-08-19T10:15:44.953Z,32.3
2017-08-19T10:16:43.106Z,32.3
2017-08-19T10:17:40.345Z,32.3
2017-08-19T10:18:42.897Z,32.3
2017-08-19T10:19:40.404Z,32.3
2017-08-19T10:20:45.068Z,32.3
2017-08-19T10:21:40.163Z,32.3
2017-08-19T10:22:45.606Z,32.3
2017-08-19T10:23:45.193Z,32.3
2017-08-19T10:24:40.651Z,32.3
2017-08-19T10:25:44.789Z,32.3
2017-08-19T10:26:40.359Z,32.3
2017-08-19T10:27:40.358Z,32.3
2017-08-19T10:28:40.532Z,32.3
2017-08-19T10:29:40.366Z,32.2
2017-08-19T10:30:45.709Z,32.2
2017-08-19T10:31:45.469Z,32.2
2017-08-19T10:32:43.454Z,32.2
2017-08-19T10:33:43.431Z,32.2
2017-08-19T10:34:46.041Z,32.2
2017-08-19T10:35:40.705Z,32.2
2017-08-19T10:36:45.997Z,32.2
2017-08-19T10:37:41.086Z,32.2
2017-08-19T10:38:41.175Z,32.2
2017-08-19T10:39:44.148Z,32.2
2017-08-19T10:40:41.480Z,32.2
2017-08-19T10:41:44.242Z,32.2
2017-08-19T10:42:41.356Z,32.2
2017-08-19T10:43:41.166Z,32.2
2017-08-19T10:44:50.299Z,32.2
2017-08-19T10:45:46.291Z,32.1
2017-08-19T10:46:41.466Z,32.1
2017-08-19T10:47:44.549Z,32.1
2017-08-19T10:48:41.408Z,32.1
2017-08-19T10:49:41.754Z,32.1
2017-08-19T10:50:46.481Z,32.1
2017-08-19T10:51:46.455Z,32.1
2017-08-19T10:52:42.016Z,32.1
2017-08-19T10:53:44.470Z,32.1
2017-08-19T10:54:42.014Z,32.1
2017-08-19T10:55:44.689Z,32.1
2017-08-19T10:56:45.122Z,32.1
2017-08-19T10:57:42.271Z,32.1
2017-08-19T10:58:42.241Z,32.1
2017-08-19T10:59:47.016Z,32.1
2017-08-19T11:00:45.306Z,32.1
2017-08-19T11:01:42.471Z,32.1
2017-08-19T11:02:42.167Z,32.1
2017-08-19T11:03:47.222Z,32.1
2017-08-19T11:04:42.487Z,32.1
2017-08-19T11:05:47.649Z,32.1
2017-08-19T11:06:45.221Z,32
2017-08-19T11:07:45.632Z,32
2017-08-19T11:08:45.694Z,32
2017-08-19T11:09:42.825Z,32
2017-08-19T11:10:45.913Z,32
2017-08-19T11:11:47.645Z,32
2017-08-19T11:12:42.651Z,32
2017-08-19T11:13:42.653Z,32
2017-08-19T11:14:45.603Z,32
2017-08-19T11:15:48.204Z,32
2017-08-19T11:16:43.135Z,32
2017-08-19T11:17:48.243Z,32
2017-08-19T11:18:46.263Z,32
2017-08-19T11:19:43.054Z,32
2017-08-19T11:20:48.409Z,32
2017-08-19T11:21:46.369Z,32
2017-08-19T11:22:43.684Z,32
2017-08-19T11:23:43.277Z,32
2017-08-19T11:24:46.547Z,32
2017-08-19T11:25:46.657Z,32
2017-08-19T11:26:46.668Z,32
2017-08-19T11:27:46.376Z,32
2017-08-19T11:28:43.833Z,32
2017-08-19T11:29:48.606Z,32
2017-08-19T11:30:43.998Z,32
2017-08-19T11:31:46.962Z,32
2017-08-19T11:32:43.820Z,32
2017-08-19T11:33:44.210Z,32
2017-08-19T11:34:44.122Z,32
2017-08-19T11:35:49.306Z,32
2017-08-19T11:36:44.394Z,32
2017-08-19T11:37:44.153Z,32
2017-08-19T11:38:44.246Z,32
2017-08-19T11:39:47.435Z,32
2017-08-19T11:40:49.488Z,32
2017-08-19T11:41:44.671Z,32
2017-08-19T11:42:49.734Z,32
2017-08-19T11:43:44.537Z,31.9
2017-08-19T11:44:47.733Z,32
2017-08-19T11:45:44.638Z,32
2017-08-19T11:46:45.229Z,32
2017-08-19T11:47:50.117Z,31.9
2017-08-19T11:48:50.143Z,31.9
2017-08-19T11:49:50.199Z,31.9
2017-08-19T11:50:47.899Z,31.9
2017-08-19T11:51:49.972Z,31.9
2017-08-19T11:52:45.051Z,31.9
2017-08-19T11:53:45.441Z,31.9
2017-08-19T11:54:48.019Z,31.9
2017-08-19T11:55:45.140Z,31.9
2017-08-19T11:56:50.534Z,31.9
2017-08-19T11:57:45.576Z,31.9
2017-08-19T11:58:48.149Z,31.9
2017-08-19T11:59:45.342Z,31.9
2017-08-19T12:00:45.475Z,31.9
2017-08-19T12:01:48.312Z,31.9
2017-08-19T12:02:45.839Z,31.9
2017-08-19T12:03:45.845Z,31.9
2017-08-19T12:04:48.400Z,31.9
2017-08-19T12:05:50.874Z,31.9
2017-08-19T12:06:50.598Z,31.9
2017-08-19T12:07:45.713Z,31.9
2017-08-19T12:08:45.688Z,31.9
2017-08-19T12:09:51.052Z,31.9
2017-08-19T12:10:49.025Z,31.9
2017-08-19T12:11:50.990Z,31.9
2017-08-19T12:12:46.310Z,31.9
2017-08-19T12:13:51.013Z,31.9
2017-08-19T12:14:49.271Z,31.9
2017-08-19T12:15:46.100Z,31.9
2017-08-19T12:16:46.190Z,31.9
2017-08-19T12:17:49.416Z,31.9
2017-08-19T12:18:51.252Z,31.9
2017-08-19T12:19:46.267Z,31.9
2017-08-19T12:20:46.627Z,31.9
2017-08-19T12:21:46.352Z,31.9
2017-08-19T12:22:46.443Z,31.9
2017-08-19T12:23:49.704Z,31.9
2017-08-19T12:24:46.564Z,31.9
2017-08-19T12:25:46.644Z,31.9
2017-08-19T12:26:46.674Z,31.9
2017-08-19T12:27:51.620Z,31.9
2017-08-19T12:28:49.868Z,31.9
2017-08-19T12:29:46.703Z,31.9
2017-08-19T12:30:47.090Z,31.9
2017-08-19T12:31:52.112Z,31.9
2017-08-19T12:32:51.817Z,31.8
2017-08-19T12:33:51.845Z,31.9
2017-08-19T12:34:46.960Z,31.9
2017-08-19T12:35:47.302Z,31.9
2017-08-19T12:36:50.174Z,31.9
2017-08-19T12:37:52.315Z,31.8
2017-08-19T12:38:50.209Z,31.8
2017-08-19T12:39:47.383Z,31.8
2017-08-19T12:40:49.973Z,31.8
2017-08-19T12:41:47.526Z,31.8
2017-08-19T12:42:47.216Z,31.8
2017-08-19T12:43:50.137Z,31.8
2017-08-19T12:44:52.235Z,31.8
2017-08-19T12:45:50.536Z,31.8
2017-08-19T12:46:50.581Z,31.8
2017-08-19T12:47:52.728Z,31.8
2017-08-19T12:48:50.283Z,31.8
2017-08-19T12:49:50.360Z,31.8
2017-08-19T12:50:47.596Z,31.8
2017-08-19T12:51:47.626Z,31.8
2017-08-19T12:52:50.884Z,31.8
2017-08-19T12:53:48.056Z,31.8
2017-08-19T12:54:50.902Z,31.8
2017-08-19T12:55:50.669Z,31.8
2017-08-19T12:56:52.807Z,31.8
2017-08-19T12:57:51.123Z,31.8
2017-08-19T12:58:53.268Z,31.8
2017-08-19T12:59:48.322Z,31.8
2017-08-19T13:00:48.041Z,31.8
2017-08-19T13:01:53.370Z,31.8
2017-08-19T13:02:53.068Z,31.8
2017-08-19T13:03:48.429Z,31.8
2017-08-19T13:04:53.082Z,31.8
2017-08-19T13:05:51.091Z,31.8
2017-08-19T13:06:53.153Z,31.8
2017-08-19T13:07:53.202Z,31.8
2017-08-19T13:08:53.292Z,31.8
2017-08-19T13:09:53.342Z,31.8
2017-08-19T13:10:53.738Z,31.8
2017-08-19T13:11:48.866Z,31.8
2017-08-19T13:12:51.761Z,31.8
2017-08-19T13:13:48.910Z,31.8
2017-08-19T13:14:51.877Z,31.8
2017-08-19T13:15:48.776Z,31.8
2017-08-19T13:16:55.005Z,31.8
2017-08-19T13:17:51.761Z,31.8
2017-08-19T13:18:51.741Z,31.8
2017-08-19T13:19:53.896Z,31.8
2017-08-19T13:20:48.965Z,31.8
2017-08-19T13:21:49.328Z,31.8